aviador You're here:

KFYV Decoded Metar

FAYETTEVILLE in AR, USA
Report Time2017-12-11 21:53:00
UTC Time2017-12-11 22:55:35
Flight Rules vfr VFR
Wind320° at 12 kt
W.Decomp.*RWY 34: 11.1 kt HW 4.5 kt LCW
W.Rank320° ranks 11
Current wind is above 320° avg. (8.1)
Visibility9999 m
Phenomena:N/A
Clouds:N/A
Expected CloudBase > 10,000 ft AGL from Temp-Dew spread
CeilingNone
Temp17°C (ISA +4)
Dew Point-8°C (17% RH)
AAT9.8°C
QNH1017 hPa
Density Alt1,686 ft
Elevation1,243 ft
Report Wrong Elevation
Raw Report
KFYV 112153Z 32012KT 10SM CLR 17/M08 A3002 RMK AO2 SLP167
T01721078=

Extra information for KFYV:More info

Metar Taf Metar & Taf Last 4 Metars F.Rules Stats Wind Profile Meteogram Temp Stats Airport Information Weather charts Add Link Nearby VenuesMetar ALERT Operation Metar Decoded Social comments

AIRNAV info for KFYV